KARV/ARV METAR and TAF weather

Enter ICAO airport designator
Station Type Date Time Source
KARV METAR 2022/01/25 04:15 UTC NOAA

KARV 250415Z AUTO 31005KT 10SM CLR M18/M30 A2991 RMK AO2 T11781303


Station Type Date Time Source
KARV Decoded METAR 2022/01/25 04:15 UTC NOAA

Minocqua/Woodruff, Lakeland Airport/Noble F. Lee Memorial Field, WI, United States (KARV) 45-56N 089-44W
Jan 24, 2022 - 11:15 PM EST / 2022.01.25 0415 UTC
Wind: from the NW (310 degrees) at 6 MPH (5 KT):0
Visibility: 10 mile(s):0
Sky conditions: clear
Temperature: -0.0 F (-17.8 C)
Windchill: -11 F (-24 C):2
Dew Point: -22.5 F (-30.3 C)
Relative Humidity: 32%
Pressure (altimeter): 29.91 in. Hg (1012 hPa)
ob: KARV 250415Z AUTO 31005KT 10SM CLR M18/M30 A2991 RMK AO2 T11781303
cycle: 4

Station Type Date Time Source
KARV TAF UTC NOAA

Error!

Example: see airport list